createdAt,value
2019-05-05T00:00:59.119Z,2.25
2019-05-05T00:01:59.300Z,2.25
2019-05-05T00:02:59.929Z,2.23
2019-05-05T00:03:59.700Z,2.07
2019-05-05T00:04:59.841Z,1.90
2019-05-05T00:05:59.977Z,1.98
2019-05-05T00:07:00.099Z,2.12
2019-05-05T00:08:00.264Z,2.02
2019-05-05T00:09:00.436Z,2.04
2019-05-05T00:10:00.596Z,2.00
2019-05-05T00:11:00.740Z,2.02
2019-05-05T00:12:01.448Z,1.90
2019-05-05T00:13:01.067Z,1.95
2019-05-05T00:14:01.271Z,1.86
2019-05-05T00:15:01.432Z,1.82
2019-05-05T00:16:01.587Z,1.82
2019-05-05T00:17:02.415Z,1.88
2019-05-05T00:18:01.932Z,1.93
2019-05-05T00:19:02.095Z,1.92
2019-05-05T00:20:02.425Z,1.86
2019-05-05T00:21:04.557Z,1.89
2019-05-05T00:22:04.505Z,1.85
2019-05-05T00:23:02.833Z,1.77
2019-05-05T00:24:04.654Z,1.75
2019-05-05T00:25:05.016Z,1.75
2019-05-05T00:26:04.360Z,1.74
2019-05-05T00:27:04.514Z,1.68
2019-05-05T00:28:05.057Z,1.57
2019-05-05T00:29:05.419Z,1.47
2019-05-05T00:30:05.417Z,1.61
2019-05-05T00:31:04.699Z,1.81
2019-05-05T00:32:05.269Z,1.79
2019-05-05T00:33:05.581Z,1.72
2019-05-05T00:34:05.521Z,1.56
2019-05-05T00:35:04.784Z,1.53
2019-05-05T00:36:07.726Z,1.61
2019-05-05T00:37:06.106Z,1.63
2019-05-05T00:38:05.348Z,1.61
2019-05-05T00:39:05.506Z,1.50
2019-05-05T00:40:05.660Z,1.50
2019-05-05T00:41:05.821Z,1.57
2019-05-05T00:42:05.983Z,1.52
2019-05-05T00:43:06.424Z,1.53
2019-05-05T00:44:06.910Z,1.53
2019-05-05T00:45:06.532Z,1.60
2019-05-05T00:46:06.666Z,1.61
2019-05-05T00:47:06.808Z,1.47
2019-05-05T00:48:06.985Z,1.49
2019-05-05T00:49:07.125Z,1.35
2019-05-05T00:50:07.288Z,1.39
2019-05-05T00:51:07.416Z,1.42
2019-05-05T00:52:07.588Z,1.39
2019-05-05T00:53:07.734Z,1.49
2019-05-05T00:54:07.858Z,1.42
2019-05-05T00:55:08.916Z,1.44
2019-05-05T00:56:08.921Z,1.31
2019-05-05T00:57:08.313Z,1.25
2019-05-05T00:58:08.434Z,1.25
2019-05-05T00:59:09.693Z,1.29
2019-05-05T01:00:08.919Z,1.08
2019-05-05T01:01:09.065Z,1.24
2019-05-05T01:02:09.238Z,1.35
2019-05-05T01:03:09.403Z,1.42
2019-05-05T01:04:10.415Z,1.36
2019-05-05T01:05:09.785Z,1.39
2019-05-05T01:06:09.965Z,1.44
2019-05-05T01:07:10.139Z,1.47
2019-05-05T01:08:10.314Z,1.56
2019-05-05T01:09:10.920Z,1.63
2019-05-05T01:10:10.691Z,1.64
2019-05-05T01:11:10.877Z,1.64
2019-05-05T01:12:25.921Z,1.75
2019-05-05T01:13:11.278Z,1.70
2019-05-05T01:14:11.427Z,1.70
2019-05-05T01:15:11.580Z,1.83
2019-05-05T01:16:12.421Z,1.74
2019-05-05T01:17:11.945Z,1.95
2019-05-05T01:18:12.121Z,2.07
2019-05-05T01:19:12.283Z,2.04
2019-05-05T01:20:14.640Z,2.27
2019-05-05T01:21:15.050Z,2.22
2019-05-05T01:22:14.445Z,2.23
2019-05-05T01:23:14.911Z,2.32
2019-05-05T01:24:14.420Z,2.38
2019-05-05T01:25:14.801Z,2.27
2019-05-05T01:26:14.373Z,2.32
2019-05-05T01:27:14.844Z,2.26
2019-05-05T01:28:14.915Z,2.18
2019-05-05T01:29:14.690Z,2.08
2019-05-05T01:30:15.280Z,1.98
2019-05-05T01:31:14.703Z,2.01
2019-05-05T01:32:15.649Z,2.01
2019-05-05T01:33:14.793Z,1.93
2019-05-05T01:34:15.250Z,1.93
2019-05-05T01:35:16.230Z,1.90
2019-05-05T01:36:15.400Z,1.92
2019-05-05T01:37:15.602Z,1.86
2019-05-05T01:38:15.796Z,1.85
2019-05-05T01:39:16.427Z,1.90
2019-05-05T01:40:16.212Z,1.83
2019-05-05T01:41:16.384Z,1.90
2019-05-05T01:42:16.577Z,1.85
2019-05-05T01:43:16.727Z,1.85
2019-05-05T01:44:16.929Z,1.89
2019-05-05T01:45:17.079Z,2.07
2019-05-05T01:46:17.223Z,2.09
2019-05-05T01:47:17.377Z,2.07
2019-05-05T01:48:17.539Z,2.09
2019-05-05T01:49:17.712Z,2.05
2019-05-05T01:50:21.195Z,2.18
2019-05-05T01:51:19.019Z,2.40
2019-05-05T01:52:18.920Z,2.25
2019-05-05T01:53:18.297Z,2.23
2019-05-05T01:54:18.470Z,2.14
2019-05-05T01:55:18.925Z,2.14
2019-05-05T01:56:18.930Z,2.12
2019-05-05T01:57:18.954Z,2.07
2019-05-05T01:58:19.921Z,1.98
2019-05-05T01:59:19.306Z,1.92
2019-05-05T02:00:19.461Z,1.92
2019-05-05T02:01:19.680Z,1.92
2019-05-05T02:02:19.848Z,1.85
2019-05-05T02:03:20.010Z,1.86
2019-05-05T02:04:20.162Z,2.01
2019-05-05T02:05:20.311Z,2.00
2019-05-05T02:06:20.939Z,1.98
2019-05-05T02:07:20.587Z,1.92
2019-05-05T02:08:20.738Z,1.95
2019-05-05T02:09:20.911Z,1.90
2019-05-05T02:10:21.105Z,1.89
2019-05-05T02:11:21.269Z,1.77
2019-05-05T02:12:21.420Z,1.72
2019-05-05T02:13:21.594Z,1.88
2019-05-05T02:14:21.758Z,1.90
2019-05-05T02:15:21.936Z,1.98
2019-05-05T02:16:22.112Z,1.90
2019-05-05T02:17:24.198Z,1.89
2019-05-05T02:18:22.540Z,1.86
2019-05-05T02:19:24.758Z,1.82
2019-05-05T02:20:29.429Z,1.77
2019-05-05T02:21:25.054Z,1.89
2019-05-05T02:22:25.206Z,1.89
2019-05-05T02:23:24.617Z,1.95
2019-05-05T02:24:25.273Z,1.92
2019-05-05T02:25:25.086Z,1.85
2019-05-05T02:26:24.913Z,1.82
2019-05-05T02:27:25.324Z,2.02
2019-05-05T02:28:25.203Z,2.01
2019-05-05T02:29:24.793Z,1.98
2019-05-05T02:30:26.702Z,2.04
2019-05-05T02:31:25.923Z,2.01
2019-05-05T02:32:25.620Z,1.95
2019-05-05T02:33:26.300Z,1.83
2019-05-05T02:34:26.130Z,1.85
2019-05-05T02:35:25.844Z,2.00
2019-05-05T02:36:26.474Z,2.00
2019-05-05T02:37:26.417Z,1.88
2019-05-05T02:38:26.300Z,1.75
2019-05-05T02:39:26.966Z,1.82
2019-05-05T02:40:26.111Z,1.92
2019-05-05T02:41:26.349Z,1.71
2019-05-05T02:42:26.439Z,1.77
2019-05-05T02:43:26.648Z,1.74
2019-05-05T02:44:26.834Z,1.64
2019-05-05T02:45:27.036Z,1.71
2019-05-05T02:46:27.260Z,1.71
2019-05-05T02:47:27.494Z,1.60
2019-05-05T02:48:27.693Z,1.63
2019-05-05T02:49:27.879Z,1.57
2019-05-05T02:50:28.052Z,1.50
2019-05-05T02:51:28.247Z,1.53
2019-05-05T02:52:28.476Z,1.46
2019-05-05T02:53:29.414Z,1.53
2019-05-05T02:54:28.852Z,1.61
2019-05-05T02:55:31.983Z,1.72
2019-05-05T02:56:29.197Z,1.81
2019-05-05T02:57:29.426Z,1.86
2019-05-05T02:58:29.587Z,1.81
2019-05-05T02:59:29.734Z,1.85
2019-05-05T03:00:29.900Z,1.85
2019-05-05T03:01:30.046Z,2.04
2019-05-05T03:02:30.213Z,2.12
2019-05-05T03:03:30.923Z,2.19
2019-05-05T03:04:30.588Z,2.07
2019-05-05T03:05:30.724Z,2.22
2019-05-05T03:06:31.897Z,2.22
2019-05-05T03:07:31.918Z,2.22
2019-05-05T03:08:31.193Z,2.25
2019-05-05T03:09:31.350Z,2.43
2019-05-05T03:10:31.499Z,2.51
2019-05-05T03:11:31.623Z,2.59
2019-05-05T03:12:31.781Z,2.50
2019-05-05T03:13:33.707Z,2.62
2019-05-05T03:14:34.012Z,2.58
2019-05-05T03:15:33.664Z,2.53
2019-05-05T03:16:34.106Z,2.68
2019-05-05T03:17:34.144Z,2.53
2019-05-05T03:18:33.996Z,2.44
2019-05-05T03:19:33.924Z,2.45
2019-05-05T03:20:34.413Z,2.32
2019-05-05T03:21:34.422Z,2.33
2019-05-05T03:22:34.133Z,2.30
2019-05-05T03:23:34.881Z,2.19
2019-05-05T03:24:34.247Z,2.44
2019-05-05T03:25:35.169Z,2.45
2019-05-05T03:26:34.324Z,2.58
2019-05-05T03:27:35.414Z,2.71
2019-05-05T03:28:34.669Z,2.87
2019-05-05T03:29:34.851Z,2.73
2019-05-05T03:30:35.917Z,2.89
2019-05-05T03:31:35.455Z,2.79
2019-05-05T03:32:36.399Z,2.84
2019-05-05T03:33:35.539Z,2.94
2019-05-05T03:34:35.930Z,2.95
2019-05-05T03:35:35.821Z,3.02
2019-05-05T03:36:36.982Z,3.07
2019-05-05T03:37:36.160Z,2.98
2019-05-05T03:38:36.315Z,2.90
2019-05-05T03:39:36.501Z,2.73
2019-05-05T03:40:36.702Z,2.73
2019-05-05T03:41:36.872Z,2.76
2019-05-05T03:42:37.051Z,2.80
2019-05-05T03:43:37.234Z,2.92
2019-05-05T03:44:37.428Z,3.04
2019-05-05T03:45:37.601Z,3.15
2019-05-05T03:46:37.755Z,3.16
2019-05-05T03:47:37.912Z,3.01
2019-05-05T03:48:38.084Z,3.13
2019-05-05T03:49:38.291Z,3.05
2019-05-05T03:50:38.482Z,3.19
2019-05-05T03:51:38.612Z,3.13
2019-05-05T03:52:39.423Z,3.07
2019-05-05T03:53:38.944Z,3.07
2019-05-05T03:54:39.100Z,3.12
2019-05-05T03:55:39.425Z,2.98
2019-05-05T03:57:24.471Z,3.01
2019-05-05T03:57:39.633Z,3.04
2019-05-05T03:58:39.773Z,3.10
2019-05-05T03:59:39.916Z,2.98
2019-05-05T04:00:40.115Z,2.89
2019-05-05T04:01:40.263Z,3.02
2019-05-05T04:02:40.420Z,2.98
2019-05-05T04:03:40.581Z,3.10
2019-05-05T04:04:40.733Z,3.15
2019-05-05T04:05:40.913Z,3.15
2019-05-05T04:06:41.062Z,2.98
2019-05-05T04:07:41.217Z,3.01
2019-05-05T04:08:41.371Z,3.02
2019-05-05T04:09:43.757Z,3.01
2019-05-05T04:10:41.706Z,3.25
2019-05-05T04:11:41.824Z,3.34
2019-05-05T04:12:43.520Z,3.25
2019-05-05T04:13:43.768Z,3.25
2019-05-05T04:14:44.053Z,3.39
2019-05-05T04:15:44.185Z,3.39
2019-05-05T04:16:43.560Z,3.31
2019-05-05T04:17:44.414Z,3.37
2019-05-05T04:18:44.214Z,3.54
2019-05-05T04:19:43.654Z,3.53
2019-05-05T04:20:44.593Z,3.62
2019-05-05T04:21:44.856Z,3.63
2019-05-05T04:22:44.964Z,3.77
2019-05-05T04:23:44.326Z,3.84
2019-05-05T04:24:45.915Z,3.96
2019-05-05T04:25:44.490Z,3.86
2019-05-05T04:26:44.646Z,3.75
2019-05-05T04:27:44.809Z,3.57
2019-05-05T04:28:44.914Z,3.28
2019-05-05T04:29:45.915Z,3.16
2019-05-05T04:30:45.282Z,3.15
2019-05-05T04:31:45.429Z,3.13
2019-05-05T04:32:45.920Z,3.15
2019-05-05T04:33:45.811Z,3.12
2019-05-05T04:34:45.937Z,3.04
2019-05-05T04:35:46.913Z,3.15
2019-05-05T04:36:46.922Z,3.08
2019-05-05T04:37:46.929Z,3.13
2019-05-05T04:38:47.411Z,3.13
2019-05-05T04:39:46.773Z,3.28
2019-05-05T04:40:46.916Z,3.26
2019-05-05T04:41:47.911Z,3.33
2019-05-05T04:42:47.311Z,3.42
2019-05-05T04:43:47.439Z,3.42
2019-05-05T04:44:47.574Z,3.60
2019-05-05T04:45:47.733Z,3.72
2019-05-05T04:46:47.879Z,3.84
2019-05-05T04:47:48.929Z,3.96
2019-05-05T04:48:48.314Z,4.28
2019-05-05T04:49:48.454Z,4.59
2019-05-05T04:50:48.557Z,4.72
2019-05-05T04:51:50.423Z,5.04
2019-05-05T04:52:49.916Z,5.17
2019-05-05T04:53:49.428Z,5.19
2019-05-05T04:54:49.317Z,5.12
2019-05-05T04:55:49.468Z,4.91
2019-05-05T04:56:49.568Z,4.88
2019-05-05T04:57:49.690Z,4.91
2019-05-05T04:58:49.831Z,4.91
2019-05-05T04:59:50.920Z,5.19
2019-05-05T05:00:50.160Z,5.12
2019-05-05T05:01:50.264Z,5.08
2019-05-05T05:02:50.499Z,5.23
2019-05-05T05:03:50.603Z,5.14
2019-05-05T05:04:50.748Z,5.02
2019-05-05T05:05:50.842Z,5.04
2019-05-05T05:06:51.081Z,5.17
2019-05-05T05:07:51.241Z,5.06
2019-05-05T05:08:53.504Z,5.09
2019-05-05T05:09:51.575Z,5.14
2019-05-05T05:10:51.714Z,5.06
2019-05-05T05:11:51.863Z,5.09
2019-05-05T05:12:53.887Z,5.11
2019-05-05T05:13:54.371Z,5.15
2019-05-05T05:14:54.700Z,5.09
2019-05-05T05:15:54.065Z,5.09
2019-05-05T05:16:54.205Z,5.11
2019-05-05T05:17:53.875Z,5.22
2019-05-05T05:18:53.781Z,5.19
2019-05-05T05:19:54.358Z,5.20
2019-05-05T05:20:54.933Z,5.19
2019-05-05T05:22:01.721Z,5.33
2019-05-05T05:22:55.749Z,5.32
2019-05-05T05:23:54.435Z,5.24
2019-05-05T05:24:54.270Z,5.29
2019-05-05T05:25:55.322Z,5.27
2019-05-05T05:26:55.545Z,5.33
2019-05-05T05:27:55.653Z,5.40
2019-05-05T05:28:54.809Z,5.51
2019-05-05T05:29:54.950Z,5.48
2019-05-05T05:30:55.109Z,5.63
2019-05-05T05:31:55.252Z,5.73
2019-05-05T05:32:55.441Z,5.67
2019-05-05T05:33:55.596Z,5.69
2019-05-05T05:34:55.761Z,5.67
2019-05-05T05:35:55.886Z,5.83
2019-05-05T05:36:56.045Z,5.96
2019-05-05T05:37:57.729Z,6.01
2019-05-05T05:38:57.911Z,5.92
2019-05-05T05:39:56.522Z,5.95
2019-05-05T05:40:57.419Z,5.95
2019-05-05T05:41:56.800Z,6.02
2019-05-05T05:42:56.981Z,6.14
2019-05-05T05:43:57.159Z,6.06
2019-05-05T05:44:57.373Z,6.02
2019-05-05T05:45:57.928Z,5.96
2019-05-05T05:46:57.705Z,5.80
2019-05-05T05:47:57.847Z,5.70
2019-05-05T05:48:57.993Z,5.66
2019-05-05T05:49:58.153Z,5.80
2019-05-05T05:50:58.271Z,5.66
2019-05-05T05:52:11.662Z,5.62
2019-05-05T05:52:59.648Z,5.65
2019-05-05T05:53:58.873Z,5.62
2019-05-05T05:54:59.041Z,5.70
2019-05-05T05:55:59.168Z,5.80
2019-05-05T05:56:59.317Z,5.78
2019-05-05T05:57:59.449Z,5.90
2019-05-05T05:59:00.416Z,6.01
2019-05-05T05:59:59.785Z,6.01
2019-05-05T06:00:59.934Z,5.98
2019-05-05T06:02:09.727Z,5.88
2019-05-05T06:03:03.965Z,5.78
2019-05-05T06:04:00.928Z,5.84
2019-05-05T06:05:00.555Z,5.80
2019-05-05T06:06:00.937Z,5.74
2019-05-05T06:07:00.884Z,5.66
2019-05-05T06:08:01.017Z,5.75
2019-05-05T06:09:01.175Z,5.63
2019-05-05T06:10:03.766Z,5.63
2019-05-05T06:11:01.480Z,5.63
2019-05-05T06:12:03.445Z,5.85
2019-05-05T06:13:03.903Z,5.95
2019-05-05T06:14:03.959Z,5.99
2019-05-05T06:15:03.919Z,5.98
2019-05-05T06:16:04.286Z,6.01
2019-05-05T06:17:04.271Z,6.08
2019-05-05T06:18:04.553Z,6.01
2019-05-05T06:19:03.696Z,5.87
2019-05-05T06:20:04.168Z,5.98
2019-05-05T06:21:04.615Z,6.08
2019-05-05T06:22:04.420Z,6.33
2019-05-05T06:23:04.639Z,6.38
2019-05-05T06:24:04.508Z,6.30
2019-05-05T06:25:06.641Z,6.51
2019-05-05T06:26:06.744Z,6.46
2019-05-05T06:27:05.389Z,6.39
2019-05-05T06:28:04.601Z,6.27
2019-05-05T06:29:05.425Z,6.05
2019-05-05T06:30:04.916Z,6.05
2019-05-05T06:31:05.144Z,6.02
2019-05-05T06:32:05.360Z,6.10
2019-05-05T06:33:05.519Z,5.99
2019-05-05T06:34:05.675Z,5.75
2019-05-05T06:35:05.827Z,5.73
2019-05-05T06:36:05.980Z,5.85
2019-05-05T06:37:06.172Z,5.84
2019-05-05T06:38:06.327Z,6.02
2019-05-05T06:39:06.477Z,6.24
2019-05-05T06:40:06.617Z,6.33
2019-05-05T06:41:06.766Z,6.51
2019-05-05T06:42:06.916Z,6.65
2019-05-05T06:43:07.087Z,6.58
2019-05-05T06:44:07.246Z,6.54
2019-05-05T06:45:07.372Z,6.50
2019-05-05T06:46:07.494Z,6.33
2019-05-05T06:47:07.638Z,6.35
2019-05-05T06:48:07.820Z,6.19
2019-05-05T06:49:07.955Z,6.33
2019-05-05T06:50:08.118Z,6.38
2019-05-05T06:51:08.272Z,6.40
2019-05-05T06:52:08.426Z,6.36
2019-05-05T06:53:08.605Z,6.28
2019-05-05T06:54:08.748Z,6.13
2019-05-05T06:55:08.912Z,6.13
2019-05-05T06:56:09.093Z,5.95
2019-05-05T06:57:09.225Z,5.88
2019-05-05T06:58:09.357Z,5.96
2019-05-05T06:59:09.934Z,6.02
2019-05-05T07:00:09.701Z,6.02
2019-05-05T07:01:09.840Z,6.11
2019-05-05T07:02:10.930Z,6.03
2019-05-05T07:03:10.175Z,6.08
2019-05-05T07:04:10.371Z,6.13
2019-05-05T07:05:10.567Z,6.03
2019-05-05T07:06:10.721Z,6.06
2019-05-05T07:07:11.884Z,6.16
2019-05-05T07:08:11.109Z,6.36
2019-05-05T07:09:11.266Z,6.60
2019-05-05T07:10:11.481Z,6.57
2019-05-05T07:11:11.703Z,6.61
2019-05-05T07:12:13.840Z,6.68
2019-05-05T07:13:14.026Z,6.64
2019-05-05T07:14:14.269Z,6.89
2019-05-05T07:15:14.544Z,6.91
2019-05-05T07:16:15.008Z,7.01
2019-05-05T07:17:14.103Z,6.97
2019-05-05T07:18:14.347Z,7.11
2019-05-05T07:19:14.678Z,6.97
2019-05-05T07:20:14.186Z,6.81
2019-05-05T07:21:14.231Z,6.75
2019-05-05T07:22:17.591Z,6.68
2019-05-05T07:23:15.431Z,6.50
2019-05-05T07:24:14.546Z,6.19
2019-05-05T07:25:15.108Z,6.11
2019-05-05T07:26:14.578Z,6.01
2019-05-05T07:27:15.462Z,6.06
2019-05-05T07:28:14.840Z,6.43
2019-05-05T07:29:18.104Z,6.36
2019-05-05T07:30:15.905Z,6.50
2019-05-05T07:31:15.055Z,6.46
2019-05-05T07:32:15.257Z,6.54
2019-05-05T07:33:15.441Z,6.54
2019-05-05T07:34:16.432Z,6.42
2019-05-05T07:35:15.828Z,6.38
2019-05-05T07:36:16.958Z,6.46
2019-05-05T07:37:16.950Z,6.40
2019-05-05T07:38:17.431Z,6.45
2019-05-05T07:39:16.703Z,6.43
2019-05-05T07:40:17.431Z,6.46
2019-05-05T07:41:17.098Z,6.40
2019-05-05T07:42:17.269Z,6.43
2019-05-05T07:43:17.436Z,6.57
2019-05-05T07:44:26.650Z,6.60
2019-05-05T07:45:23.095Z,6.51
2019-05-05T07:46:19.924Z,6.71
2019-05-05T07:47:18.034Z,6.45
2019-05-05T07:48:18.941Z,6.46
2019-05-05T07:49:18.428Z,6.50
2019-05-05T07:50:28.435Z,6.51
2019-05-05T07:51:20.728Z,6.46
2019-05-05T07:52:19.933Z,6.25
2019-05-05T07:53:19.183Z,6.24
2019-05-05T07:54:19.351Z,6.17
2019-05-05T07:55:19.507Z,6.16
2019-05-05T07:56:19.946Z,6.14
2019-05-05T07:57:20.455Z,6.02
2019-05-05T07:58:20.088Z,6.02
2019-05-05T07:59:20.462Z,5.96
2019-05-05T08:00:20.376Z,5.98
2019-05-05T08:01:20.534Z,5.93
2019-05-05T08:02:20.677Z,5.92
2019-05-05T08:03:20.803Z,5.95
2019-05-05T08:04:21.444Z,6.08
2019-05-05T08:05:21.079Z,6.10
2019-05-05T08:06:21.231Z,6.27
2019-05-05T08:07:21.441Z,6.48
2019-05-05T08:08:21.593Z,6.60
2019-05-05T08:09:22.698Z,6.79
2019-05-05T08:10:24.141Z,6.90
2019-05-05T08:11:23.872Z,7.01
2019-05-05T08:12:24.975Z,7.09
2019-05-05T08:13:24.323Z,7.04
2019-05-05T08:14:24.525Z,6.99
2019-05-05T08:15:24.936Z,7.18
2019-05-05T08:16:24.264Z,7.16
2019-05-05T08:17:24.478Z,7.09
2019-05-05T08:18:24.311Z,7.15
2019-05-05T08:19:24.778Z,7.14
2019-05-05T08:20:23.914Z,7.16
2019-05-05T08:21:25.082Z,7.14
2019-05-05T08:22:24.928Z,7.14
2019-05-05T08:23:30.276Z,7.04
2019-05-05T08:24:26.595Z,6.89
2019-05-05T08:25:36.174Z,7.00
2019-05-05T08:26:26.038Z,6.86
2019-05-05T08:27:25.154Z,6.87
2019-05-05T08:28:25.310Z,6.58
2019-05-05T08:29:25.474Z,6.73
2019-05-05T08:30:26.437Z,6.82
2019-05-05T08:31:26.433Z,6.89
2019-05-05T08:32:25.984Z,6.94
2019-05-05T08:33:26.152Z,7.14
2019-05-05T08:34:26.324Z,7.27
2019-05-05T08:35:26.490Z,7.57
2019-05-05T08:36:27.437Z,7.67
2019-05-05T08:37:26.811Z,7.85
2019-05-05T08:38:26.992Z,7.89
2019-05-05T08:39:27.226Z,7.99
2019-05-05T08:40:27.379Z,8.04
2019-05-05T08:41:27.588Z,8.02
2019-05-05T08:42:27.779Z,8.10
2019-05-05T08:43:27.963Z,7.94
2019-05-05T08:44:28.458Z,7.77
2019-05-05T08:45:28.388Z,7.79
2019-05-05T08:46:29.439Z,7.66
2019-05-05T08:47:28.710Z,7.67
2019-05-05T08:48:28.891Z,7.70
2019-05-05T08:49:29.451Z,7.77
2019-05-05T08:50:29.237Z,7.84
2019-05-05T08:51:29.408Z,7.88
2019-05-05T08:52:30.449Z,7.85
2019-05-05T08:53:41.508Z,7.74
2019-05-05T08:54:33.798Z,7.66
2019-05-05T08:55:29.976Z,7.76
2019-05-05T08:56:30.140Z,7.74
2019-05-05T08:57:30.942Z,7.70
2019-05-05T08:58:30.496Z,7.81
2019-05-05T08:59:30.649Z,7.69
2019-05-05T09:00:30.957Z,7.48
2019-05-05T09:01:30.957Z,7.48
2019-05-05T09:02:33.188Z,7.44
2019-05-05T09:03:33.678Z,7.50
2019-05-05T09:04:31.371Z,7.33
2019-05-05T09:05:34.151Z,7.55
2019-05-05T09:06:31.742Z,7.51
2019-05-05T09:07:33.654Z,7.63
2019-05-05T09:08:32.091Z,7.85
2019-05-05T09:09:33.502Z,7.94
2019-05-05T09:10:34.341Z,8.21
2019-05-05T09:11:34.437Z,8.03
2019-05-05T09:12:33.901Z,8.09
2019-05-05T09:13:34.120Z,8.14
2019-05-05T09:14:34.639Z,8.42
2019-05-05T09:15:37.511Z,8.47
2019-05-05T09:16:34.437Z,8.55
2019-05-05T09:17:33.779Z,8.63
2019-05-05T09:18:34.825Z,8.36
2019-05-05T09:19:34.447Z,8.20
2019-05-05T09:20:35.158Z,8.12
2019-05-05T09:21:34.659Z,8.02
2019-05-05T09:22:35.487Z,8.06
2019-05-05T09:23:34.792Z,8.00
2019-05-05T09:24:35.776Z,7.95
2019-05-05T09:25:34.963Z,7.82
2019-05-05T09:26:35.182Z,7.69
2019-05-05T09:27:35.365Z,7.71
2019-05-05T09:28:35.560Z,7.58
2019-05-05T09:29:35.757Z,7.73
2019-05-05T09:30:35.949Z,7.79
2019-05-05T09:31:36.175Z,7.88
2019-05-05T09:32:36.355Z,7.99
2019-05-05T09:33:36.540Z,8.17
2019-05-05T09:34:37.481Z,8.10
2019-05-05T09:35:36.881Z,8.42
2019-05-05T09:36:37.121Z,8.65
2019-05-05T09:37:37.274Z,8.79
2019-05-05T09:38:37.474Z,9.08
2019-05-05T09:39:37.686Z,9.22
2019-05-05T09:40:37.874Z,9.35
2019-05-05T09:41:38.074Z,9.40
2019-05-05T09:42:38.249Z,9.44
2019-05-05T09:43:38.435Z,9.34
2019-05-05T09:44:39.444Z,8.79
2019-05-05T09:45:38.718Z,8.68
2019-05-05T09:46:39.681Z,8.45
2019-05-05T09:47:40.026Z,8.60
2019-05-05T09:48:39.144Z,8.83
2019-05-05T09:49:39.314Z,9.04
2019-05-05T09:50:39.492Z,9.34
2019-05-05T09:51:39.707Z,9.53
2019-05-05T09:52:39.872Z,9.83
2019-05-05T09:53:40.038Z,9.91
2019-05-05T09:54:40.213Z,10.14
2019-05-05T09:55:40.942Z,9.99
2019-05-05T09:56:40.603Z,9.81
2019-05-05T09:57:40.795Z,10.02
2019-05-05T09:58:40.983Z,10.09
2019-05-05T09:59:41.174Z,10.18
2019-05-05T10:00:44.018Z,10.22
2019-05-05T10:01:41.531Z,10.35
2019-05-05T10:02:43.943Z,10.47
2019-05-05T10:03:41.994Z,10.69
2019-05-05T10:04:43.938Z,10.72
2019-05-05T10:05:42.276Z,10.75
2019-05-05T10:06:47.114Z,10.87
2019-05-05T10:07:44.131Z,10.68
2019-05-05T10:08:44.663Z,10.24
2019-05-05T10:09:43.814Z,10.39
2019-05-05T10:10:44.386Z,10.78
2019-05-05T10:11:45.004Z,11.39
2019-05-05T10:12:44.702Z,11.56
2019-05-05T10:13:44.651Z,11.64
2019-05-05T10:14:45.003Z,11.96
2019-05-05T10:15:44.897Z,11.67
2019-05-05T10:16:44.015Z,10.80
2019-05-05T10:17:44.182Z,10.76
2019-05-05T10:18:44.834Z,11.09
2019-05-05T10:19:45.600Z,11.54
2019-05-05T10:20:44.770Z,12.22
2019-05-05T10:21:44.938Z,12.55
2019-05-05T10:22:45.133Z,12.59
2019-05-05T10:23:45.307Z,12.22
2019-05-05T10:24:45.462Z,11.88
2019-05-05T10:25:46.627Z,12.36
2019-05-05T10:26:45.742Z,12.41
2019-05-05T10:27:47.783Z,12.74
2019-05-05T10:28:47.102Z,13.01
2019-05-05T10:29:46.369Z,12.94
2019-05-05T10:30:46.526Z,12.48
2019-05-05T10:31:46.667Z,11.75
2019-05-05T10:32:46.907Z,11.16
2019-05-05T10:33:47.046Z,10.76
2019-05-05T10:34:47.285Z,11.13
2019-05-05T10:35:47.975Z,11.67
2019-05-05T10:36:47.605Z,11.72
2019-05-05T10:37:48.456Z,11.57
2019-05-05T10:38:47.955Z,12.16
2019-05-05T10:39:48.153Z,12.56
2019-05-05T10:40:48.500Z,12.40
2019-05-05T10:41:49.565Z,11.77
2019-05-05T10:42:48.678Z,11.21
2019-05-05T10:43:48.799Z,10.70
2019-05-05T10:44:48.939Z,10.80
2019-05-05T10:45:49.098Z,10.69
2019-05-05T10:46:49.263Z,10.90
2019-05-05T10:47:49.950Z,11.35
2019-05-05T10:48:49.542Z,10.91
2019-05-05T10:49:49.684Z,10.35
2019-05-05T10:50:49.820Z,10.32
2019-05-05T10:51:50.024Z,10.95
2019-05-05T10:52:50.156Z,11.21
2019-05-05T10:53:50.305Z,11.64
2019-05-05T10:54:50.443Z,11.82
2019-05-05T10:55:51.459Z,11.62
2019-05-05T10:56:50.865Z,10.62
2019-05-05T10:57:51.054Z,10.36
2019-05-05T10:58:51.267Z,10.34
2019-05-05T10:59:51.455Z,10.54
2019-05-05T11:00:54.368Z,10.99
2019-05-05T11:01:53.800Z,11.11
2019-05-05T11:02:52.047Z,10.91
2019-05-05T11:03:53.225Z,11.36
2019-05-05T11:04:54.475Z,11.06
2019-05-05T11:05:53.829Z,10.52
2019-05-05T11:06:54.658Z,10.17
2019-05-05T11:07:53.799Z,9.83
2019-05-05T11:09:15.068Z,10.04
2019-05-05T11:09:54.298Z,10.31
2019-05-05T11:10:53.416Z,10.76
2019-05-05T11:11:53.611Z,11.17
2019-05-05T11:12:54.461Z,11.54
2019-05-05T11:13:54.346Z,11.36
2019-05-05T11:14:55.962Z,11.03
2019-05-05T11:15:54.963Z,10.55
2019-05-05T11:16:54.727Z,9.93
2019-05-05T11:17:55.688Z,9.73
2019-05-05T11:18:54.889Z,9.98
2019-05-05T11:19:55.048Z,10.28
2019-05-05T11:20:55.962Z,10.20
2019-05-05T11:21:55.349Z,10.32
2019-05-05T11:22:55.544Z,10.60
2019-05-05T11:23:55.695Z,10.76
2019-05-05T11:25:00.740Z,10.54
2019-05-05T11:25:58.083Z,10.20
2019-05-05T11:26:56.970Z,10.17
2019-05-05T11:27:56.460Z,10.09
2019-05-05T11:28:56.613Z,9.95
2019-05-05T11:29:57.485Z,10.09
2019-05-05T11:30:56.986Z,9.83
2019-05-05T11:31:57.119Z,9.56
2019-05-05T11:32:57.280Z,9.16
2019-05-05T11:33:57.448Z,9.13
2019-05-05T11:34:57.618Z,8.97
2019-05-05T11:35:57.774Z,9.12
2019-05-05T11:36:57.911Z,9.32
2019-05-05T11:37:58.093Z,9.56
2019-05-05T11:38:58.255Z,9.73
2019-05-05T11:39:58.381Z,9.89
2019-05-05T11:40:58.652Z,9.95
2019-05-05T11:41:58.798Z,9.99
2019-05-05T11:42:58.988Z,9.98
2019-05-05T11:43:59.123Z,10.09
2019-05-05T11:44:59.297Z,10.47
2019-05-05T11:45:59.968Z,10.94
2019-05-05T11:46:59.592Z,11.23
2019-05-05T11:48:00.474Z,11.45
2019-05-05T11:48:59.961Z,11.66
2019-05-05T11:50:00.136Z,11.59
2019-05-05T11:51:00.280Z,11.72
2019-05-05T11:52:00.430Z,11.72
2019-05-05T11:53:01.477Z,11.69
2019-05-05T11:54:00.731Z,11.41
2019-05-05T11:55:09.630Z,11.27
2019-05-05T11:56:04.207Z,11.11
2019-05-05T11:57:01.335Z,11.06
2019-05-05T11:58:03.578Z,11.16
2019-05-05T11:59:04.051Z,11.23
2019-05-05T12:00:03.870Z,11.48
2019-05-05T12:01:04.049Z,11.59
2019-05-05T12:02:03.787Z,11.45
2019-05-05T12:03:03.847Z,11.63
2019-05-05T12:04:04.058Z,11.77
2019-05-05T12:05:04.538Z,11.82
2019-05-05T12:06:04.122Z,11.81
2019-05-05T12:07:04.218Z,11.87
2019-05-05T12:08:04.119Z,12.00
2019-05-05T12:09:03.361Z,11.84
2019-05-05T12:10:03.559Z,12.01
2019-05-05T12:11:04.579Z,12.26
2019-05-05T12:12:04.912Z,12.44
2019-05-05T12:13:04.160Z,12.52
2019-05-05T12:14:04.218Z,12.61
2019-05-05T12:15:04.989Z,12.61
2019-05-05T12:16:04.842Z,12.73
2019-05-05T12:17:04.744Z,12.98
2019-05-05T12:18:04.907Z,13.17
2019-05-05T12:19:05.980Z,13.35
2019-05-05T12:20:05.240Z,13.13
2019-05-05T12:21:05.511Z,12.76
2019-05-05T12:22:06.472Z,12.54
2019-05-05T12:23:05.719Z,12.69
2019-05-05T12:24:05.897Z,12.67
2019-05-05T12:25:06.984Z,12.74
2019-05-05T12:26:06.267Z,12.80
2019-05-05T12:27:06.979Z,12.99
2019-05-05T12:28:06.588Z,13.48
2019-05-05T12:29:06.731Z,13.88
2019-05-05T12:30:06.869Z,13.87
2019-05-05T12:31:07.057Z,13.88
2019-05-05T12:32:07.207Z,14.04
2019-05-05T12:33:07.976Z,14.16
2019-05-05T12:34:07.582Z,14.27
2019-05-05T12:35:07.713Z,14.36
2019-05-05T12:36:07.845Z,14.02
2019-05-05T12:37:08.493Z,14.06
2019-05-05T12:38:08.088Z,14.20
2019-05-05T12:39:09.244Z,14.30
2019-05-05T12:40:08.361Z,14.57
2019-05-05T12:41:09.475Z,14.60
2019-05-05T12:42:08.736Z,14.20
2019-05-05T12:43:08.903Z,14.01
2019-05-05T12:44:09.050Z,14.11
2019-05-05T12:45:09.195Z,14.26
2019-05-05T12:46:09.352Z,14.39
2019-05-05T12:47:09.535Z,14.34
2019-05-05T12:48:09.997Z,14.04
2019-05-05T12:49:09.823Z,14.06
2019-05-05T12:50:09.982Z,14.38
2019-05-05T12:51:10.135Z,14.36
2019-05-05T12:52:10.307Z,14.56
2019-05-05T12:53:10.492Z,14.71
2019-05-05T12:54:10.661Z,14.23
2019-05-05T12:55:10.810Z,12.89
2019-05-05T12:56:10.952Z,12.49
2019-05-05T12:57:11.091Z,12.29
2019-05-05T12:58:11.281Z,11.57
2019-05-05T12:59:11.442Z,11.98
2019-05-05T13:00:11.587Z,12.05
2019-05-05T13:01:14.156Z,12.23
2019-05-05T13:02:11.897Z,12.36
2019-05-05T13:03:13.491Z,12.85
2019-05-05T13:04:14.125Z,13.32
2019-05-05T13:05:14.348Z,13.55
2019-05-05T13:06:14.562Z,14.05
2019-05-05T13:07:13.632Z,14.53
2019-05-05T13:08:14.360Z,14.82
2019-05-05T13:09:13.669Z,15.33
2019-05-05T13:10:14.345Z,15.43
2019-05-05T13:11:13.467Z,15.18
2019-05-05T13:12:15.029Z,14.45
2019-05-05T13:13:14.140Z,13.54
2019-05-05T13:14:14.923Z,13.24
2019-05-05T13:15:14.398Z,13.21